sensor_id;sensor_type;location;lat;lon;timestamp;P1;durP1;ratioP1;P2;durP2;ratioP2
3068;SDS011;1545;51.728;8.796;2023-12-29T00:01:09;11.77;;;3.33;;
3068;SDS011;1545;51.728;8.796;2023-12-29T00:03:35;10.07;;;3.33;;
3068;SDS011;1545;51.728;8.796;2023-12-29T00:06:02;8.80;;;3.13;;
3068;SDS011;1545;51.728;8.796;2023-12-29T00:08:28;7.50;;;3.00;;
3068;SDS011;1545;51.728;8.796;2023-12-29T00:10:53;13.37;;;3.33;;
3068;SDS011;1545;51.728;8.796;2023-12-29T00:13:19;11.30;;;3.37;;
3068;SDS011;1545;51.728;8.796;2023-12-29T00:15:48;4.10;;;2.70;;
3068;SDS011;1545;51.728;8.796;2023-12-29T00:18:16;9.20;;;3.47;;
3068;SDS011;1545;51.728;8.796;2023-12-29T00:20:42;13.47;;;3.30;;
3068;SDS011;1545;51.728;8.796;2023-12-29T00:23:07;8.80;;;3.60;;
3068;SDS011;1545;51.728;8.796;2023-12-29T00:25:35;11.17;;;3.23;;
3068;SDS011;1545;51.728;8.796;2023-12-29T00:28:01;7.70;;;3.10;;
3068;SDS011;1545;51.728;8.796;2023-12-29T00:30:27;8.03;;;3.20;;
3068;SDS011;1545;51.728;8.796;2023-12-29T00:32:54;10.50;;;3.50;;
3068;SDS011;1545;51.728;8.796;2023-12-29T00:35:20;8.20;;;3.10;;
3068;SDS011;1545;51.728;8.796;2023-12-29T00:37:45;9.60;;;2.60;;
3068;SDS011;1545;51.728;8.796;2023-12-29T00:40:11;10.93;;;2.97;;
3068;SDS011;1545;51.728;8.796;2023-12-29T00:42:37;11.17;;;3.43;;
3068;SDS011;1545;51.728;8.796;2023-12-29T00:45:03;7.37;;;3.10;;
3068;SDS011;1545;51.728;8.796;2023-12-29T00:47:29;15.13;;;3.03;;
3068;SDS011;1545;51.728;8.796;2023-12-29T00:49:55;10.73;;;3.10;;
3068;SDS011;1545;51.728;8.796;2023-12-29T00:52:20;9.13;;;2.87;;
3068;SDS011;1545;51.728;8.796;2023-12-29T00:54:46;8.93;;;2.77;;
3068;SDS011;1545;51.728;8.796;2023-12-29T00:57:11;8.93;;;2.97;;
3068;SDS011;1545;51.728;8.796;2023-12-29T00:59:37;11.00;;;3.63;;
3068;SDS011;1545;51.728;8.796;2023-12-29T01:02:04;9.23;;;3.10;;
3068;SDS011;1545;51.728;8.796;2023-12-29T01:04:30;5.70;;;2.60;;
3068;SDS011;1545;51.728;8.796;2023-12-29T01:06:56;10.20;;;2.77;;
3068;SDS011;1545;51.728;8.796;2023-12-29T01:09:21;11.27;;;2.57;;
3068;SDS011;1545;51.728;8.796;2023-12-29T01:11:47;5.70;;;2.67;;
3068;SDS011;1545;51.728;8.796;2023-12-29T01:14:12;6.53;;;2.37;;
3068;SDS011;1545;51.728;8.796;2023-12-29T01:16:38;8.27;;;2.60;;
3068;SDS011;1545;51.728;8.796;2023-12-29T01:19:04;7.37;;;2.50;;
3068;SDS011;1545;51.728;8.796;2023-12-29T01:21:30;18.17;;;3.10;;
3068;SDS011;1545;51.728;8.796;2023-12-29T01:23:59;11.73;;;3.10;;
3068;SDS011;1545;51.728;8.796;2023-12-29T01:26:29;8.70;;;2.20;;
3068;SDS011;1545;51.728;8.796;2023-12-29T01:28:55;8.90;;;2.80;;
3068;SDS011;1545;51.728;8.796;2023-12-29T01:31:20;9.77;;;2.60;;
3068;SDS011;1545;51.728;8.796;2023-12-29T01:33:47;8.00;;;2.50;;
3068;SDS011;1545;51.728;8.796;2023-12-29T01:36:18;11.37;;;2.80;;
3068;SDS011;1545;51.728;8.796;2023-12-29T01:38:44;8.20;;;2.60;;
3068;SDS011;1545;51.728;8.796;2023-12-29T01:41:09;13.60;;;2.13;;
3068;SDS011;1545;51.728;8.796;2023-12-29T01:43:35;10.27;;;2.83;;
3068;SDS011;1545;51.728;8.796;2023-12-29T01:46:00;11.10;;;2.70;;
3068;SDS011;1545;51.728;8.796;2023-12-29T01:48:26;15.13;;;3.00;;
3068;SDS011;1545;51.728;8.796;2023-12-29T01:50:52;7.00;;;2.60;;
3068;SDS011;1545;51.728;8.796;2023-12-29T01:53:19;5.13;;;2.57;;
3068;SDS011;1545;51.728;8.796;2023-12-29T01:55:44;9.87;;;2.70;;
3068;SDS011;1545;51.728;8.796;2023-12-29T01:58:10;9.37;;;3.00;;
3068;SDS011;1545;51.728;8.796;2023-12-29T02:00:36;12.53;;;2.63;;
3068;SDS011;1545;51.728;8.796;2023-12-29T02:03:02;9.73;;;2.57;;
3068;SDS011;1545;51.728;8.796;2023-12-29T02:05:28;9.33;;;2.93;;
3068;SDS011;1545;51.728;8.796;2023-12-29T02:07:55;9.57;;;2.20;;
3068;SDS011;1545;51.728;8.796;2023-12-29T02:10:21;7.90;;;2.60;;
3068;SDS011;1545;51.728;8.796;2023-12-29T02:12:48;4.47;;;2.33;;
3068;SDS011;1545;51.728;8.796;2023-12-29T02:15:15;5.53;;;2.17;;
3068;SDS011;1545;51.728;8.796;2023-12-29T02:17:41;8.67;;;2.70;;
3068;SDS011;1545;51.728;8.796;2023-12-29T02:20:11;6.83;;;2.20;;
3068;SDS011;1545;51.728;8.796;2023-12-29T02:22:37;5.73;;;2.33;;
3068;SDS011;1545;51.728;8.796;2023-12-29T02:25:03;8.80;;;2.97;;
3068;SDS011;1545;51.728;8.796;2023-12-29T02:27:35;5.77;;;2.60;;
3068;SDS011;1545;51.728;8.796;2023-12-29T02:33:25;6.13;;;2.43;;
3068;SDS011;1545;51.728;8.796;2023-12-29T02:35:52;5.97;;;2.17;;
3068;SDS011;1545;51.728;8.796;2023-12-29T02:38:24;5.27;;;2.17;;
3068;SDS011;1545;51.728;8.796;2023-12-29T02:40:53;10.00;;;2.53;;
3068;SDS011;1545;51.728;8.796;2023-12-29T02:43:20;9.67;;;2.67;;
3068;SDS011;1545;51.728;8.796;2023-12-29T02:45:45;14.07;;;2.80;;
3068;SDS011;1545;51.728;8.796;2023-12-29T02:48:11;11.87;;;2.70;;
3068;SDS011;1545;51.728;8.796;2023-12-29T02:50:36;9.00;;;2.50;;
3068;SDS011;1545;51.728;8.796;2023-12-29T02:53:02;9.03;;;2.57;;
3068;SDS011;1545;51.728;8.796;2023-12-29T02:55:29;9.80;;;2.43;;
3068;SDS011;1545;51.728;8.796;2023-12-29T02:57:54;9.27;;;2.50;;
3068;SDS011;1545;51.728;8.796;2023-12-29T03:00:20;7.60;;;2.70;;
3068;SDS011;1545;51.728;8.796;2023-12-29T03:02:45;11.50;;;2.33;;
3068;SDS011;1545;51.728;8.796;2023-12-29T03:05:10;6.43;;;2.47;;
3068;SDS011;1545;51.728;8.796;2023-12-29T03:07:36;11.47;;;2.70;;
3068;SDS011;1545;51.728;8.796;2023-12-29T03:10:02;11.37;;;2.77;;
3068;SDS011;1545;51.728;8.796;2023-12-29T03:12:28;12.33;;;2.90;;
3068;SDS011;1545;51.728;8.796;2023-12-29T03:14:55;9.20;;;2.30;;
3068;SDS011;1545;51.728;8.796;2023-12-29T03:17:21;13.67;;;2.60;;
3068;SDS011;1545;51.728;8.796;2023-12-29T03:19:46;8.67;;;2.37;;
3068;SDS011;1545;51.728;8.796;2023-12-29T03:22:11;12.37;;;2.90;;
3068;SDS011;1545;51.728;8.796;2023-12-29T03:24:39;10.53;;;2.80;;
3068;SDS011;1545;51.728;8.796;2023-12-29T03:27:05;7.73;;;3.00;;
3068;SDS011;1545;51.728;8.796;2023-12-29T03:29:31;9.07;;;2.50;;
3068;SDS011;1545;51.728;8.796;2023-12-29T03:31:56;15.83;;;3.10;;
3068;SDS011;1545;51.728;8.796;2023-12-29T03:34:22;11.90;;;3.20;;
3068;SDS011;1545;51.728;8.796;2023-12-29T03:36:47;16.17;;;3.53;;
3068;SDS011;1545;51.728;8.796;2023-12-29T03:39:13;9.90;;;3.73;;
3068;SDS011;1545;51.728;8.796;2023-12-29T03:41:38;12.77;;;3.50;;
3068;SDS011;1545;51.728;8.796;2023-12-29T03:44:04;12.03;;;3.37;;
3068;SDS011;1545;51.728;8.796;2023-12-29T03:46:31;10.73;;;3.40;;
3068;SDS011;1545;51.728;8.796;2023-12-29T03:48:56;9.50;;;3.27;;
3068;SDS011;1545;51.728;8.796;2023-12-29T03:51:22;13.17;;;3.43;;
3068;SDS011;1545;51.728;8.796;2023-12-29T03:53:47;17.43;;;3.40;;
3068;SDS011;1545;51.728;8.796;2023-12-29T03:56:14;12.03;;;3.43;;
3068;SDS011;1545;51.728;8.796;2023-12-29T03:58:44;11.20;;;3.60;;
3068;SDS011;1545;51.728;8.796;2023-12-29T04:01:10;11.10;;;4.00;;
3068;SDS011;1545;51.728;8.796;2023-12-29T04:03:36;11.03;;;3.70;;
3068;SDS011;1545;51.728;8.796;2023-12-29T04:06:02;10.67;;;3.73;;
3068;SDS011;1545;51.728;8.796;2023-12-29T04:08:27;11.90;;;4.03;;
3068;SDS011;1545;51.728;8.796;2023-12-29T04:10:53;14.87;;;3.70;;
3068;SDS011;1545;51.728;8.796;2023-12-29T04:13:18;8.00;;;3.73;;
3068;SDS011;1545;51.728;8.796;2023-12-29T04:15:44;25.30;;;4.40;;
3068;SDS011;1545;51.728;8.796;2023-12-29T04:18:09;14.77;;;4.13;;
3068;SDS011;1545;51.728;8.796;2023-12-29T04:20:35;14.57;;;3.80;;
3068;SDS011;1545;51.728;8.796;2023-12-29T04:23:00;10.30;;;3.57;;
3068;SDS011;1545;51.728;8.796;2023-12-29T04:25:25;10.63;;;4.00;;
3068;SDS011;1545;51.728;8.796;2023-12-29T04:27:51;7.13;;;3.60;;
3068;SDS011;1545;51.728;8.796;2023-12-29T04:30:17;12.27;;;3.97;;
3068;SDS011;1545;51.728;8.796;2023-12-29T04:32:42;15.70;;;3.77;;
3068;SDS011;1545;51.728;8.796;2023-12-29T04:35:07;11.73;;;3.40;;
3068;SDS011;1545;51.728;8.796;2023-12-29T04:37:37;11.07;;;3.67;;
3068;SDS011;1545;51.728;8.796;2023-12-29T04:40:02;8.27;;;3.60;;
3068;SDS011;1545;51.728;8.796;2023-12-29T04:42:28;12.33;;;3.70;;
3068;SDS011;1545;51.728;8.796;2023-12-29T04:44:53;6.97;;;3.30;;
3068;SDS011;1545;51.728;8.796;2023-12-29T04:47:19;11.40;;;3.77;;
3068;SDS011;1545;51.728;8.796;2023-12-29T04:49:44;9.70;;;3.03;;
3068;SDS011;1545;51.728;8.796;2023-12-29T04:52:10;11.30;;;3.43;;
3068;SDS011;1545;51.728;8.796;2023-12-29T04:54:35;10.67;;;3.53;;
3068;SDS011;1545;51.728;8.796;2023-12-29T04:57:01;10.63;;;3.97;;
3068;SDS011;1545;51.728;8.796;2023-12-29T04:59:26;8.80;;;3.33;;
3068;SDS011;1545;51.728;8.796;2023-12-29T05:01:52;11.90;;;3.03;;
3068;SDS011;1545;51.728;8.796;2023-12-29T05:04:17;10.07;;;2.63;;
3068;SDS011;1545;51.728;8.796;2023-12-29T05:06:43;5.17;;;2.80;;
3068;SDS011;1545;51.728;8.796;2023-12-29T05:09:09;10.77;;;2.87;;
3068;SDS011;1545;51.728;8.796;2023-12-29T05:11:34;9.87;;;3.10;;
3068;SDS011;1545;51.728;8.796;2023-12-29T05:14:00;7.73;;;3.20;;
3068;SDS011;1545;51.728;8.796;2023-12-29T05:16:25;4.70;;;2.57;;
3068;SDS011;1545;51.728;8.796;2023-12-29T05:18:50;6.03;;;2.73;;
3068;SDS011;1545;51.728;8.796;2023-12-29T05:21:16;4.57;;;3.00;;
3068;SDS011;1545;51.728;8.796;2023-12-29T05:23:43;8.37;;;3.00;;
3068;SDS011;1545;51.728;8.796;2023-12-29T05:26:10;9.13;;;2.80;;
3068;SDS011;1545;51.728;8.796;2023-12-29T05:28:35;8.93;;;2.87;;
3068;SDS011;1545;51.728;8.796;2023-12-29T05:31:01;8.03;;;3.17;;
3068;SDS011;1545;51.728;8.796;2023-12-29T05:33:29;8.20;;;3.43;;
3068;SDS011;1545;51.728;8.796;2023-12-29T05:35:55;8.63;;;3.63;;
3068;SDS011;1545;51.728;8.796;2023-12-29T05:38:20;8.37;;;3.20;;
3068;SDS011;1545;51.728;8.796;2023-12-29T05:40:46;17.37;;;3.63;;
3068;SDS011;1545;51.728;8.796;2023-12-29T05:43:11;13.37;;;3.63;;
3068;SDS011;1545;51.728;8.796;2023-12-29T05:45:37;5.93;;;3.30;;
3068;SDS011;1545;51.728;8.796;2023-12-29T05:48:02;7.90;;;3.03;;
3068;SDS011;1545;51.728;8.796;2023-12-29T05:50:28;14.20;;;3.53;;
3068;SDS011;1545;51.728;8.796;2023-12-29T05:52:53;13.43;;;3.90;;
3068;SDS011;1545;51.728;8.796;2023-12-29T05:55:19;17.63;;;3.67;;
3068;SDS011;1545;51.728;8.796;2023-12-29T05:57:44;11.00;;;3.33;;
3068;SDS011;1545;51.728;8.796;2023-12-29T06:00:10;11.10;;;3.03;;
3068;SDS011;1545;51.728;8.796;2023-12-29T06:02:39;10.80;;;3.03;;
3068;SDS011;1545;51.728;8.796;2023-12-29T06:05:05;14.40;;;3.27;;
3068;SDS011;1545;51.728;8.796;2023-12-29T06:07:31;8.83;;;3.10;;
3068;SDS011;1545;51.728;8.796;2023-12-29T06:09:57;7.33;;;2.93;;
3068;SDS011;1545;51.728;8.796;2023-12-29T06:12:22;18.57;;;3.93;;
3068;SDS011;1545;51.728;8.796;2023-12-29T06:14:47;5.70;;;2.80;;
3068;SDS011;1545;51.728;8.796;2023-12-29T06:17:14;10.10;;;3.37;;
3068;SDS011;1545;51.728;8.796;2023-12-29T06:19:40;13.57;;;3.47;;
3068;SDS011;1545;51.728;8.796;2023-12-29T06:22:06;14.73;;;3.17;;
3068;SDS011;1545;51.728;8.796;2023-12-29T06:24:36;8.47;;;3.30;;
3068;SDS011;1545;51.728;8.796;2023-12-29T06:27:08;8.90;;;3.40;;
3068;SDS011;1545;51.728;8.796;2023-12-29T06:29:34;11.90;;;3.20;;
3068;SDS011;1545;51.728;8.796;2023-12-29T06:32:00;11.03;;;3.00;;
3068;SDS011;1545;51.728;8.796;2023-12-29T06:34:25;13.33;;;3.20;;
3068;SDS011;1545;51.728;8.796;2023-12-29T06:36:51;14.07;;;3.40;;
3068;SDS011;1545;51.728;8.796;2023-12-29T06:39:17;10.93;;;3.23;;
3068;SDS011;1545;51.728;8.796;2023-12-29T06:41:42;9.40;;;3.47;;
3068;SDS011;1545;51.728;8.796;2023-12-29T06:44:08;10.97;;;3.13;;
3068;SDS011;1545;51.728;8.796;2023-12-29T06:46:33;10.10;;;3.57;;
3068;SDS011;1545;51.728;8.796;2023-12-29T06:48:59;13.50;;;3.50;;
3068;SDS011;1545;51.728;8.796;2023-12-29T06:51:24;11.67;;;3.47;;
3068;SDS011;1545;51.728;8.796;2023-12-29T06:53:50;14.80;;;3.30;;
3068;SDS011;1545;51.728;8.796;2023-12-29T06:56:16;7.97;;;3.07;;
3068;SDS011;1545;51.728;8.796;2023-12-29T06:58:42;11.40;;;3.00;;
3068;SDS011;1545;51.728;8.796;2023-12-29T07:01:08;7.63;;;2.90;;
3068;SDS011;1545;51.728;8.796;2023-12-29T07:03:34;7.87;;;2.90;;
3068;SDS011;1545;51.728;8.796;2023-12-29T07:06:02;12.03;;;3.27;;
3068;SDS011;1545;51.728;8.796;2023-12-29T07:08:28;11.67;;;3.13;;
3068;SDS011;1545;51.728;8.796;2023-12-29T07:10:53;9.73;;;3.60;;
3068;SDS011;1545;51.728;8.796;2023-12-29T07:13:19;14.17;;;3.13;;
3068;SDS011;1545;51.728;8.796;2023-12-29T07:15:45;10.10;;;2.80;;
3068;SDS011;1545;51.728;8.796;2023-12-29T07:18:12;5.57;;;2.90;;
3068;SDS011;1545;51.728;8.796;2023-12-29T07:20:37;8.03;;;3.10;;
3068;SDS011;1545;51.728;8.796;2023-12-29T07:23:03;8.23;;;2.93;;
3068;SDS011;1545;51.728;8.796;2023-12-29T07:25:28;9.00;;;3.20;;
3068;SDS011;1545;51.728;8.796;2023-12-29T07:27:54;14.77;;;3.63;;
3068;SDS011;1545;51.728;8.796;2023-12-29T07:30:19;13.57;;;3.33;;
3068;SDS011;1545;51.728;8.796;2023-12-29T07:32:45;12.83;;;3.43;;
3068;SDS011;1545;51.728;8.796;2023-12-29T07:35:10;13.10;;;3.23;;
3068;SDS011;1545;51.728;8.796;2023-12-29T07:37:36;11.67;;;3.33;;
3068;SDS011;1545;51.728;8.796;2023-12-29T07:40:01;10.80;;;3.17;;
3068;SDS011;1545;51.728;8.796;2023-12-29T07:42:28;16.93;;;3.70;;
3068;SDS011;1545;51.728;8.796;2023-12-29T07:44:54;9.77;;;2.80;;
3068;SDS011;1545;51.728;8.796;2023-12-29T07:47:21;16.57;;;3.40;;
3068;SDS011;1545;51.728;8.796;2023-12-29T07:49:46;8.93;;;3.00;;
3068;SDS011;1545;51.728;8.796;2023-12-29T07:52:12;7.97;;;2.60;;
3068;SDS011;1545;51.728;8.796;2023-12-29T07:54:37;9.67;;;3.60;;
3068;SDS011;1545;51.728;8.796;2023-12-29T07:57:03;14.83;;;3.63;;
3068;SDS011;1545;51.728;8.796;2023-12-29T07:59:28;8.43;;;3.00;;
3068;SDS011;1545;51.728;8.796;2023-12-29T08:01:58;12.63;;;3.03;;
3068;SDS011;1545;51.728;8.796;2023-12-29T08:04:24;10.33;;;2.83;;
3068;SDS011;1545;51.728;8.796;2023-12-29T08:06:49;12.60;;;3.53;;
3068;SDS011;1545;51.728;8.796;2023-12-29T08:09:15;13.17;;;3.07;;
3068;SDS011;1545;51.728;8.796;2023-12-29T08:11:40;9.77;;;3.20;;
3068;SDS011;1545;51.728;8.796;2023-12-29T08:14:07;10.60;;;3.23;;
3068;SDS011;1545;51.728;8.796;2023-12-29T08:16:37;11.27;;;3.33;;
3068;SDS011;1545;51.728;8.796;2023-12-29T08:19:04;12.23;;;3.27;;
3068;SDS011;1545;51.728;8.796;2023-12-29T08:21:29;5.53;;;2.50;;
3068;SDS011;1545;51.728;8.796;2023-12-29T08:23:55;10.77;;;3.03;;
3068;SDS011;1545;51.728;8.796;2023-12-29T08:26:20;15.50;;;3.00;;
3068;SDS011;1545;51.728;8.796;2023-12-29T08:28:46;15.63;;;3.50;;
3068;SDS011;1545;51.728;8.796;2023-12-29T08:31:11;14.17;;;3.43;;
3068;SDS011;1545;51.728;8.796;2023-12-29T08:33:37;10.67;;;3.20;;
3068;SDS011;1545;51.728;8.796;2023-12-29T08:36:02;7.87;;;2.80;;
3068;SDS011;1545;51.728;8.796;2023-12-29T08:38:28;14.30;;;3.40;;
3068;SDS011;1545;51.728;8.796;2023-12-29T08:40:55;17.20;;;3.40;;
3068;SDS011;1545;51.728;8.796;2023-12-29T08:43:21;16.20;;;3.53;;
3068;SDS011;1545;51.728;8.796;2023-12-29T08:45:49;8.53;;;3.10;;
3068;SDS011;1545;51.728;8.796;2023-12-29T08:48:15;11.00;;;3.10;;
3068;SDS011;1545;51.728;8.796;2023-12-29T08:50:41;15.33;;;3.73;;
3068;SDS011;1545;51.728;8.796;2023-12-29T08:53:07;17.63;;;3.10;;
3068;SDS011;1545;51.728;8.796;2023-12-29T08:55:33;9.90;;;3.03;;
3068;SDS011;1545;51.728;8.796;2023-12-29T08:57:59;9.13;;;3.13;;
3068;SDS011;1545;51.728;8.796;2023-12-29T09:00:24;8.47;;;2.90;;
3068;SDS011;1545;51.728;8.796;2023-12-29T09:02:50;10.47;;;3.03;;
3068;SDS011;1545;51.728;8.796;2023-12-29T09:05:15;9.87;;;3.33;;
3068;SDS011;1545;51.728;8.796;2023-12-29T09:07:41;15.90;;;3.60;;
3068;SDS011;1545;51.728;8.796;2023-12-29T09:10:06;9.97;;;3.13;;
3068;SDS011;1545;51.728;8.796;2023-12-29T09:12:35;9.67;;;3.53;;
3068;SDS011;1545;51.728;8.796;2023-12-29T09:15:01;12.73;;;3.13;;
3068;SDS011;1545;51.728;8.796;2023-12-29T09:17:27;12.07;;;3.20;;
3068;SDS011;1545;51.728;8.796;2023-12-29T09:19:53;12.47;;;2.77;;
3068;SDS011;1545;51.728;8.796;2023-12-29T09:22:19;14.67;;;3.30;;
3068;SDS011;1545;51.728;8.796;2023-12-29T09:24:45;14.20;;;2.83;;
3068;SDS011;1545;51.728;8.796;2023-12-29T09:27:10;11.47;;;3.40;;
3068;SDS011;1545;51.728;8.796;2023-12-29T09:29:36;13.50;;;3.03;;
3068;SDS011;1545;51.728;8.796;2023-12-29T09:32:02;12.20;;;3.20;;
3068;SDS011;1545;51.728;8.796;2023-12-29T09:34:28;7.80;;;2.90;;
3068;SDS011;1545;51.728;8.796;2023-12-29T09:36:53;7.73;;;3.40;;
3068;SDS011;1545;51.728;8.796;2023-12-29T09:39:19;10.53;;;2.83;;
3068;SDS011;1545;51.728;8.796;2023-12-29T09:41:46;6.73;;;2.63;;
3068;SDS011;1545;51.728;8.796;2023-12-29T09:44:13;4.50;;;2.20;;
3068;SDS011;1545;51.728;8.796;2023-12-29T09:46:41;6.77;;;2.47;;
3068;SDS011;1545;51.728;8.796;2023-12-29T09:49:08;5.33;;;2.20;;
3068;SDS011;1545;51.728;8.796;2023-12-29T09:51:34;5.57;;;2.57;;
3068;SDS011;1545;51.728;8.796;2023-12-29T09:54:01;8.10;;;2.77;;
3068;SDS011;1545;51.728;8.796;2023-12-29T09:56:28;5.23;;;2.10;;
3068;SDS011;1545;51.728;8.796;2023-12-29T09:58:54;8.17;;;2.80;;
3068;SDS011;1545;51.728;8.796;2023-12-29T10:01:21;5.67;;;2.30;;
3068;SDS011;1545;51.728;8.796;2023-12-29T10:03:48;3.43;;;1.57;;
3068;SDS011;1545;51.728;8.796;2023-12-29T10:06:15;4.17;;;2.10;;
3068;SDS011;1545;51.728;8.796;2023-12-29T10:08:48;4.23;;;1.83;;
3068;SDS011;1545;51.728;8.796;2023-12-29T10:11:18;3.93;;;1.83;;
3068;SDS011;1545;51.728;8.796;2023-12-29T10:13:47;3.20;;;1.50;;
3068;SDS011;1545;51.728;8.796;2023-12-29T10:19:10;4.07;;;1.70;;
3068;SDS011;1545;51.728;8.796;2023-12-29T10:24:27;3.53;;;1.70;;
3068;SDS011;1545;51.728;8.796;2023-12-29T10:26:53;2.70;;;1.50;;
3068;SDS011;1545;51.728;8.796;2023-12-29T10:29:20;1.67;;;1.40;;
3068;SDS011;1545;51.728;8.796;2023-12-29T10:31:46;3.67;;;1.87;;
3068;SDS011;1545;51.728;8.796;2023-12-29T10:34:20;4.30;;;1.97;;
3068;SDS011;1545;51.728;8.796;2023-12-29T10:37:00;3.77;;;1.63;;
3068;SDS011;1545;51.728;8.796;2023-12-29T10:39:33;2.10;;;1.40;;
3068;SDS011;1545;51.728;8.796;2023-12-29T10:42:03;5.07;;;2.23;;
3068;SDS011;1545;51.728;8.796;2023-12-29T10:44:36;1.87;;;1.40;;
3068;SDS011;1545;51.728;8.796;2023-12-29T10:47:08;7.40;;;1.83;;
3068;SDS011;1545;51.728;8.796;2023-12-29T10:49:37;4.10;;;1.40;;
3068;SDS011;1545;51.728;8.796;2023-12-29T10:52:11;8.30;;;1.60;;
3068;SDS011;1545;51.728;8.796;2023-12-29T10:54:43;1.33;;;1.30;;
3068;SDS011;1545;51.728;8.796;2023-12-29T10:57:12;1.80;;;1.60;;
3068;SDS011;1545;51.728;8.796;2023-12-29T10:59:41;2.97;;;1.70;;
3068;SDS011;1545;51.728;8.796;2023-12-29T11:02:07;1.73;;;1.40;;
3068;SDS011;1545;51.728;8.796;2023-12-29T11:04:39;2.63;;;1.43;;
3068;SDS011;1545;51.728;8.796;2023-12-29T11:07:06;3.63;;;1.77;;
3068;SDS011;1545;51.728;8.796;2023-12-29T11:09:32;7.33;;;2.77;;
3068;SDS011;1545;51.728;8.796;2023-12-29T11:12:00;1.63;;;1.40;;
3068;SDS011;1545;51.728;8.796;2023-12-29T11:14:29;1.47;;;1.40;;
3068;SDS011;1545;51.728;8.796;2023-12-29T11:16:55;4.33;;;1.10;;
3068;SDS011;1545;51.728;8.796;2023-12-29T11:19:22;1.10;;;1.07;;
3068;SDS011;1545;51.728;8.796;2023-12-29T11:21:51;3.00;;;1.40;;
3068;SDS011;1545;51.728;8.796;2023-12-29T11:24:19;2.10;;;1.43;;
3068;SDS011;1545;51.728;8.796;2023-12-29T11:26:44;3.13;;;1.43;;
3068;SDS011;1545;51.728;8.796;2023-12-29T11:29:13;2.00;;;1.40;;
3068;SDS011;1545;51.728;8.796;2023-12-29T11:31:40;5.77;;;1.27;;
3068;SDS011;1545;51.728;8.796;2023-12-29T11:34:10;1.37;;;1.10;;
3068;SDS011;1545;51.728;8.796;2023-12-29T11:36:41;2.27;;;1.30;;
3068;SDS011;1545;51.728;8.796;2023-12-29T11:39:14;1.50;;;1.30;;
3068;SDS011;1545;51.728;8.796;2023-12-29T11:44:45;1.50;;;1.30;;
3068;SDS011;1545;51.728;8.796;2023-12-29T11:50:02;1.27;;;1.17;;
3068;SDS011;1545;51.728;8.796;2023-12-29T11:52:35;1.70;;;1.50;;
3068;SDS011;1545;51.728;8.796;2023-12-29T11:55:10;1.43;;;1.40;;
3068;SDS011;1545;51.728;8.796;2023-12-29T11:57:38;1.50;;;1.30;;
3068;SDS011;1545;51.728;8.796;2023-12-29T12:00:07;1.90;;;1.40;;
3068;SDS011;1545;51.728;8.796;2023-12-29T12:02:33;1.50;;;1.20;;
3068;SDS011;1545;51.728;8.796;2023-12-29T12:04:58;1.37;;;1.10;;
3068;SDS011;1545;51.728;8.796;2023-12-29T12:10:27;1.83;;;1.30;;
3068;SDS011;1545;51.728;8.796;2023-12-29T12:12:44;1.30;;;1.20;;
3068;SDS011;1545;51.728;8.796;2023-12-29T12:17:54;1.17;;;1.13;;
3068;SDS011;1545;51.728;8.796;2023-12-29T12:20:23;2.57;;;1.20;;
3068;SDS011;1545;51.728;8.796;2023-12-29T12:22:50;1.77;;;1.50;;
3068;SDS011;1545;51.728;8.796;2023-12-29T12:25:25;3.13;;;1.53;;
3068;SDS011;1545;51.728;8.796;2023-12-29T12:27:53;3.20;;;1.60;;
3068;SDS011;1545;51.728;8.796;2023-12-29T12:30:18;1.60;;;1.37;;
3068;SDS011;1545;51.728;8.796;2023-12-29T12:32:44;1.67;;;1.50;;
3068;SDS011;1545;51.728;8.796;2023-12-29T12:35:14;1.93;;;1.50;;
3068;SDS011;1545;51.728;8.796;2023-12-29T12:37:41;1.90;;;1.60;;
3068;SDS011;1545;51.728;8.796;2023-12-29T12:40:06;5.73;;;1.90;;
3068;SDS011;1545;51.728;8.796;2023-12-29T12:42:33;4.50;;;1.70;;
3068;SDS011;1545;51.728;8.796;2023-12-29T12:45:06;2.30;;;1.80;;
3068;SDS011;1545;51.728;8.796;2023-12-29T12:47:37;2.43;;;1.70;;
3068;SDS011;1545;51.728;8.796;2023-12-29T12:50:09;1.93;;;1.80;;
3068;SDS011;1545;51.728;8.796;2023-12-29T12:52:39;3.20;;;1.60;;
3068;SDS011;1545;51.728;8.796;2023-12-29T12:55:05;2.70;;;1.80;;
3068;SDS011;1545;51.728;8.796;2023-12-29T12:57:32;2.40;;;1.80;;
3068;SDS011;1545;51.728;8.796;2023-12-29T12:59:59;1.50;;;1.40;;
3068;SDS011;1545;51.728;8.796;2023-12-29T13:02:26;7.17;;;2.00;;
3068;SDS011;1545;51.728;8.796;2023-12-29T13:04:53;3.67;;;1.73;;
3068;SDS011;1545;51.728;8.796;2023-12-29T13:07:19;3.40;;;2.37;;
3068;SDS011;1545;51.728;8.796;2023-12-29T13:09:45;5.57;;;2.03;;
3068;SDS011;1545;51.728;8.796;2023-12-29T13:12:11;3.37;;;2.23;;
3068;SDS011;1545;51.728;8.796;2023-12-29T13:14:38;4.03;;;2.40;;
3068;SDS011;1545;51.728;8.796;2023-12-29T13:17:10;3.97;;;2.43;;
3068;SDS011;1545;51.728;8.796;2023-12-29T13:19:37;6.53;;;2.33;;
3068;SDS011;1545;51.728;8.796;2023-12-29T13:22:08;4.33;;;2.40;;
3068;SDS011;1545;51.728;8.796;2023-12-29T13:24:43;4.30;;;2.50;;
3068;SDS011;1545;51.728;8.796;2023-12-29T13:27:10;6.93;;;2.50;;
3068;SDS011;1545;51.728;8.796;2023-12-29T13:29:37;6.53;;;3.27;;
3068;SDS011;1545;51.728;8.796;2023-12-29T13:32:04;4.03;;;2.30;;
3068;SDS011;1545;51.728;8.796;2023-12-29T13:34:44;5.73;;;2.63;;
3068;SDS011;1545;51.728;8.796;2023-12-29T13:37:25;4.53;;;2.70;;
3068;SDS011;1545;51.728;8.796;2023-12-29T13:40:13;6.87;;;2.60;;
3068;SDS011;1545;51.728;8.796;2023-12-29T13:42:53;10.60;;;2.57;;
3068;SDS011;1545;51.728;8.796;2023-12-29T13:45:23;7.13;;;2.63;;
3068;SDS011;1545;51.728;8.796;2023-12-29T13:47:49;6.70;;;2.80;;
3068;SDS011;1545;51.728;8.796;2023-12-29T13:50:15;5.00;;;2.60;;
3068;SDS011;1545;51.728;8.796;2023-12-29T13:52:41;6.67;;;2.53;;
3068;SDS011;1545;51.728;8.796;2023-12-29T13:55:07;5.00;;;2.80;;
3068;SDS011;1545;51.728;8.796;2023-12-29T13:57:33;3.80;;;2.40;;
3068;SDS011;1545;51.728;8.796;2023-12-29T14:02:48;5.63;;;2.30;;
3068;SDS011;1545;51.728;8.796;2023-12-29T14:05:24;5.47;;;2.57;;
3068;SDS011;1545;51.728;8.796;2023-12-29T14:08:16;5.60;;;3.20;;
3068;SDS011;1545;51.728;8.796;2023-12-29T14:10:45;5.77;;;2.40;;
3068;SDS011;1545;51.728;8.796;2023-12-29T14:13:14;2.83;;;2.17;;
3068;SDS011;1545;51.728;8.796;2023-12-29T14:15:44;5.03;;;2.60;;
3068;SDS011;1545;51.728;8.796;2023-12-29T14:26:28;9.27;;;3.10;;
3068;SDS011;1545;51.728;8.796;2023-12-29T14:31:27;7.17;;;3.30;;
3068;SDS011;1545;51.728;8.796;2023-12-29T14:33:52;5.67;;;2.83;;
3068;SDS011;1545;51.728;8.796;2023-12-29T14:36:18;7.77;;;3.10;;
3068;SDS011;1545;51.728;8.796;2023-12-29T14:38:43;3.90;;;2.63;;
3068;SDS011;1545;51.728;8.796;2023-12-29T14:41:09;4.83;;;2.60;;
3068;SDS011;1545;51.728;8.796;2023-12-29T14:43:35;8.80;;;3.20;;
3068;SDS011;1545;51.728;8.796;2023-12-29T14:46:00;7.03;;;3.40;;
3068;SDS011;1545;51.728;8.796;2023-12-29T14:48:25;5.00;;;2.50;;
3068;SDS011;1545;51.728;8.796;2023-12-29T14:50:51;5.90;;;2.37;;
3068;SDS011;1545;51.728;8.796;2023-12-29T14:53:16;6.30;;;2.50;;
3068;SDS011;1545;51.728;8.796;2023-12-29T14:55:42;6.07;;;2.23;;
3068;SDS011;1545;51.728;8.796;2023-12-29T14:58:08;5.70;;;2.20;;
3068;SDS011;1545;51.728;8.796;2023-12-29T15:00:33;5.83;;;2.20;;
3068;SDS011;1545;51.728;8.796;2023-12-29T15:02:59;6.03;;;2.70;;
3068;SDS011;1545;51.728;8.796;2023-12-29T15:05:24;7.60;;;2.77;;
3068;SDS011;1545;51.728;8.796;2023-12-29T15:07:50;5.40;;;2.33;;
3068;SDS011;1545;51.728;8.796;2023-12-29T15:10:15;6.63;;;2.87;;
3068;SDS011;1545;51.728;8.796;2023-12-29T15:12:41;7.13;;;2.63;;
3068;SDS011;1545;51.728;8.796;2023-12-29T15:15:08;10.40;;;3.23;;
3068;SDS011;1545;51.728;8.796;2023-12-29T15:17:36;5.77;;;3.23;;
3068;SDS011;1545;51.728;8.796;2023-12-29T15:20:02;12.13;;;2.77;;
3068;SDS011;1545;51.728;8.796;2023-12-29T15:22:28;6.20;;;2.60;;
3068;SDS011;1545;51.728;8.796;2023-12-29T15:24:53;9.10;;;2.30;;
3068;SDS011;1545;51.728;8.796;2023-12-29T15:27:18;4.57;;;2.43;;
3068;SDS011;1545;51.728;8.796;2023-12-29T15:29:44;4.70;;;2.20;;
3068;SDS011;1545;51.728;8.796;2023-12-29T15:32:09;4.60;;;2.30;;
3068;SDS011;1545;51.728;8.796;2023-12-29T15:34:35;8.57;;;2.40;;
3068;SDS011;1545;51.728;8.796;2023-12-29T15:37:00;4.90;;;2.50;;
3068;SDS011;1545;51.728;8.796;2023-12-29T15:39:28;5.27;;;2.73;;
3068;SDS011;1545;51.728;8.796;2023-12-29T15:41:53;7.50;;;2.53;;